Time;durP1;ratioP1;P1;durP2;ratioP2;P2;SDS_P1;SDS_P2;PMS_P1;PMS_P2;Temp;Humidity;BMP_temperature;BMP_pressure;BME280_temperature;BME280_humidity;BME280_pressure;Samples;Min_cycle;Max_cycle;Signal;HPM_P1;HPM_P2
2022/10/02 03:03:06;;;;;;;;;;;14.90;99.90;;;;;;4954460;28;20017;-67
2022/10/02 03:05:33;;;;;;;;;;;14.90;99.90;;;;;;4968507;28;19926;-68
2022/10/02 03:08:01;;;;;;;;;;;14.80;99.90;;;;;;4970675;28;19970;-67
2022/10/02 03:10:32;;;;;;;;;;;14.90;99.90;;;;;;4972086;28;19930;-66
2022/10/02 03:13:07;;;;;;;;;;;14.80;99.90;;;;;;4970780;28;20412;-67
2022/10/02 03:15:39;;;;;;;;;;;14.90;99.90;;;;;;4970944;28;19976;-69
2022/10/02 03:18:17;;;;;;;;;;;14.80;99.90;;;;;;4970728;28;19926;-67
2022/10/02 03:20:51;;;;;;;;;;;14.60;99.90;;;;;;4970406;28;20020;-68
2022/10/02 03:23:25;;;;;;;;;;;14.40;99.90;;;;;;4970954;28;20395;-68
2022/10/02 03:25:53;;;;;;;;;;;14.30;99.90;;;;;;4971121;28;19933;-68
2022/10/02 03:28:23;;;;;;;;;;;14.30;99.90;;;;;;4970917;28;20020;-67
2022/10/02 03:30:51;;;;;;;;;;;14.30;99.90;;;;;;4970620;28;19984;-66
2022/10/02 03:33:20;;;;;;;;;;;14.20;99.90;;;;;;4971824;28;19976;-68
2022/10/02 03:35:49;;;;;;;;;;;14.20;99.90;;;;;;4970968;28;19965;-69
2022/10/02 03:38:16;;;;;;;;;;;14.20;99.90;;;;;;4971988;28;19938;-67
2022/10/02 03:40:42;;;;;;;;;;;14.10;99.90;;;;;;4971752;28;19969;-68
2022/10/02 03:43:10;;;;;;;;;;;14.10;99.90;;;;;;4970950;28;19969;-67
2022/10/02 03:45:36;;;;;;;;;;;14.10;99.90;;;;;;4970917;28;20026;-68
2022/10/02 03:48:03;;;;;;;;;;;14.10;99.90;;;;;;4970720;28;20021;-67
2022/10/02 03:50:31;;;;;;;;;;;14.20;99.90;;;;;;4970553;28;20077;-69
2022/10/02 03:52:58;;;;;;;;;;;14.10;99.90;;;;;;4970559;28;19968;-68
2022/10/02 03:55:31;;;;;;;;;;;14.10;99.90;;;;;;4970716;28;19926;-68
2022/10/02 03:57:58;;;;;;;;;;;14.10;99.90;;;;;;4965184;28;20456;-68
2022/10/02 04:00:28;;;;;;;;;;;14.00;99.90;;;;;;4962944;28;19962;-67
2022/10/02 04:02:57;;;;;;;;;;;14.00;99.90;;;;;;4969015;28;20024;-67
2022/10/02 04:05:26;;;;;;;;;;;14.00;99.90;;;;;;4961285;28;19981;-68
2022/10/02 04:07:55;;;;;;;;;;;14.00;99.90;;;;;;4954805;28;19969;-67
2022/10/02 04:10:28;;;;;;;;;;;14.00;99.90;;;;;;4954581;29;19962;-68
2022/10/02 04:12:57;;;;;;;;;;;14.00;99.90;;;;;;4954364;29;19978;-67
2022/10/02 04:15:27;;;;;;;;;;;14.00;99.90;;;;;;4954743;28;19958;-68
2022/10/02 04:17:55;;;;;;;;;;;14.00;99.90;;;;;;4955696;29;19969;-68
2022/10/02 04:20:25;;;;;;;;;;;14.10;99.90;;;;;;4955559;29;19926;-68
2022/10/02 04:22:54;;;;;;;;;;;14.10;99.90;;;;;;4954146;28;19926;-68
2022/10/02 04:25:24;;;;;;;;;;;14.10;99.90;;;;;;4955575;28;19926;-68
2022/10/02 04:27:54;;;;;;;;;;;14.10;99.90;;;;;;4954468;29;20473;-68
2022/10/02 04:30:22;;;;;;;;;;;14.10;99.90;;;;;;4953947;29;20381;-68
2022/10/02 04:32:49;;;;;;;;;;;14.10;99.90;;;;;;4954056;29;19930;-67
2022/10/02 04:35:16;;;;;;;;;;;14.10;99.90;;;;;;4954192;29;19933;-67
2022/10/02 04:38:01;;;;;;;;;;;14.00;99.90;;;;;;4954216;29;20520;-67
2022/10/02 04:40:39;;;;;;;;;;;14.00;99.90;;;;;;4953880;29;19926;-67
2022/10/02 04:43:12;;;;;;;;;;;14.00;99.90;;;;;;4954146;29;19973;-67
2022/10/02 04:45:49;;;;;;;;;;;14.00;99.90;;;;;;4954129;29;20524;-67
2022/10/02 04:48:49;;;;;;;;;;;14.00;99.90;;;;;;4953910;29;19926;-68
2022/10/02 04:51:20;;;;;;;;;;;13.90;99.90;;;;;;4895456;29;20034;-67
2022/10/02 04:53:55;;;;;;;;;;;13.90;99.90;;;;;;4880022;29;19997;-70
2022/10/02 04:56:32;;;;;;;;;;;13.90;99.90;;;;;;4916734;29;20389;-68
2022/10/02 04:59:04;;;;;;;;;;;13.90;99.90;;;;;;4937421;29;20389;-67
2022/10/02 05:01:35;;;;;;;;;;;13.90;99.90;;;;;;4935300;28;19935;-66
2022/10/02 05:04:06;;;;;;;;;;;13.90;99.90;;;;;;4951098;28;19988;-68
2022/10/02 05:06:41;;;;;;;;;;;13.90;99.90;;;;;;4959602;28;20477;-67
2022/10/02 05:09:12;;;;;;;;;;;13.90;99.90;;;;;;4936586;29;19931;-68
2022/10/02 05:11:52;;;;;;;;;;;13.90;99.90;;;;;;4943933;29;19927;-67
2022/10/02 05:14:25;;;;;;;;;;;13.80;99.90;;;;;;4953188;29;19978;-68
2022/10/02 05:16:57;;;;;;;;;;;13.80;99.90;;;;;;4953562;29;19982;-69
2022/10/02 05:19:42;;;;;;;;;;;13.80;99.90;;;;;;4952913;29;20342;-72
2022/10/02 05:22:23;;;;;;;;;;;13.80;99.90;;;;;;4952871;29;19926;-72
2022/10/02 05:24:55;;;;;;;;;;;13.80;99.90;;;;;;4950508;29;19934;-67
2022/10/02 05:27:35;;;;;;;;;;;13.80;99.90;;;;;;4953118;29;19926;-68
2022/10/02 05:30:05;;;;;;;;;;;13.80;99.90;;;;;;4953299;29;19926;-69
2022/10/02 05:32:40;;;;;;;;;;;13.80;99.90;;;;;;4952850;28;19926;-67
2022/10/02 05:35:16;;;;;;;;;;;13.80;99.90;;;;;;4953354;29;19930;-67
2022/10/02 05:37:51;;;;;;;;;;;13.80;99.90;;;;;;4953057;29;19926;-67
2022/10/02 05:40:20;;;;;;;;;;;13.70;99.90;;;;;;4952145;29;19934;-63
2022/10/02 05:42:51;;;;;;;;;;;13.70;99.90;;;;;;4952336;28;19931;-69
2022/10/02 05:45:21;;;;;;;;;;;13.70;99.90;;;;;;4952805;29;19927;-67
2022/10/02 05:47:49;;;;;;;;;;;13.70;99.90;;;;;;4952979;29;19926;-67
2022/10/02 05:50:17;;;;;;;;;;;13.70;99.90;;;;;;4952346;28;19930;-66
2022/10/02 05:52:47;;;;;;;;;;;13.70;99.90;;;;;;4952386;29;19927;-65
2022/10/02 05:55:16;;;;;;;;;;;13.70;99.90;;;;;;4952991;29;19927;-66
2022/10/02 05:57:46;;;;;;;;;;;13.60;99.90;;;;;;4952585;28;20333;-68
2022/10/02 06:00:20;;;;;;;;;;;13.60;99.90;;;;;;4952456;29;19926;-66
2022/10/02 06:02:49;;;;;;;;;;;13.60;99.90;;;;;;4952440;29;19926;-66
2022/10/02 06:05:18;;;;;;;;;;;13.60;99.90;;;;;;4952435;29;19935;-65
2022/10/02 06:07:47;;;;;;;;;;;13.60;99.90;;;;;;4952809;28;19927;-66
2022/10/02 06:10:16;;;;;;;;;;;13.60;99.90;;;;;;4951241;29;19934;-67
2022/10/02 06:12:46;;;;;;;;;;;13.50;99.90;;;;;;4933009;29;19926;-66
2022/10/02 06:15:17;;;;;;;;;;;13.50;99.90;;;;;;4933185;29;19934;-66
2022/10/02 06:17:48;;;;;;;;;;;13.50;99.90;;;;;;4933413;29;19927;-65
2022/10/02 06:20:18;;;;;;;;;;;13.50;99.90;;;;;;4932964;29;20326;-66
2022/10/02 06:22:47;;;;;;;;;;;13.50;99.90;;;;;;4933036;29;20328;-66
2022/10/02 06:25:17;;;;;;;;;;;13.50;99.90;;;;;;4932995;29;19934;-66
2022/10/02 06:27:47;;;;;;;;;;;13.40;99.90;;;;;;4933109;29;19958;-66
2022/10/02 06:30:14;;;;;;;;;;;13.40;99.90;;;;;;4932690;29;19934;-66
2022/10/02 06:32:44;;;;;;;;;;;13.50;99.90;;;;;;4932900;29;19930;-67
2022/10/02 06:35:14;;;;;;;;;;;13.50;99.90;;;;;;4933042;29;19931;-66
2022/10/02 06:37:52;;;;;;;;;;;13.50;99.90;;;;;;4933249;29;19931;-66
2022/10/02 06:40:44;;;;;;;;;;;13.50;99.90;;;;;;4932876;29;20390;-66
2022/10/02 06:43:15;;;;;;;;;;;13.50;99.90;;;;;;4932953;29;19989;-66
2022/10/02 06:45:44;;;;;;;;;;;13.50;99.90;;;;;;4933262;29;19978;-66
2022/10/02 06:48:15;;;;;;;;;;;13.50;99.90;;;;;;4933248;29;20291;-66
2022/10/02 06:50:48;;;;;;;;;;;13.50;99.90;;;;;;4932461;29;19927;-68
2022/10/02 06:53:25;;;;;;;;;;;13.50;99.90;;;;;;4932933;29;19926;-66
2022/10/02 06:55:58;;;;;;;;;;;13.50;99.90;;;;;;4933253;29;19931;-66
2022/10/02 06:58:44;;;;;;;;;;;13.50;99.90;;;;;;4932873;29;20402;-66
2022/10/02 07:01:16;;;;;;;;;;;13.50;99.90;;;;;;4932293;29;19926;-66
2022/10/02 07:04:00;;;;;;;;;;;13.50;99.90;;;;;;4932820;29;19934;-66
2022/10/02 07:06:35;;;;;;;;;;;13.50;99.90;;;;;;4933125;29;19934;-66
2022/10/02 07:09:17;;;;;;;;;;;13.50;99.90;;;;;;4932548;29;19931;-65
2022/10/02 07:11:49;;;;;;;;;;;13.50;99.90;;;;;;4942810;29;19926;-67
2022/10/02 07:14:26;;;;;;;;;;;13.50;99.90;;;;;;4951411;29;20290;-66
2022/10/02 07:17:00;;;;;;;;;;;13.40;99.90;;;;;;4951934;29;20017;-65
2022/10/02 07:19:33;;;;;;;;;;;13.40;99.90;;;;;;4951435;29;19930;-66
2022/10/02 07:22:08;;;;;;;;;;;13.40;99.90;;;;;;4951589;29;19985;-67
2022/10/02 07:24:42;;;;;;;;;;;13.40;99.90;;;;;;4951800;29;20377;-66
2022/10/02 07:27:13;;;;;;;;;;;13.50;99.90;;;;;;4951505;29;19930;-66
2022/10/02 07:29:47;;;;;;;;;;;13.50;99.90;;;;;;4951328;29;20370;-66
2022/10/02 07:32:22;;;;;;;;;;;13.50;99.90;;;;;;4951063;28;19971;-65
2022/10/02 07:34:54;;;;;;;;;;;13.50;99.90;;;;;;4951594;28;19934;-67
2022/10/02 07:37:25;;;;;;;;;;;13.50;99.90;;;;;;4955222;29;19977;-67
2022/10/02 07:40:05;;;;;;;;;;;13.50;99.90;;;;;;4954973;29;19931;-65
2022/10/02 07:42:38;;;;;;;;;;;13.50;99.90;;;;;;4954669;29;19930;-66
2022/10/02 07:45:22;;;;;;;;;;;13.50;99.90;;;;;;4955407;29;19931;-66
2022/10/02 07:47:57;;;;;;;;;;;13.60;99.90;;;;;;4955313;29;19931;-66
2022/10/02 07:50:29;;;;;;;;;;;13.50;99.90;;;;;;4954203;29;19926;-67
2022/10/02 07:53:01;;;;;;;;;;;13.60;99.90;;;;;;4954468;29;19934;-66
2022/10/02 07:55:27;;;;;;;;;;;13.60;99.90;;;;;;4954861;29;19933;-66
2022/10/02 07:57:59;;;;;;;;;;;13.70;99.90;;;;;;4954764;28;19934;-66
2022/10/02 08:00:28;;;;;;;;;;;13.70;99.90;;;;;;4954520;29;19930;-65
2022/10/02 08:02:56;;;;;;;;;;;13.80;99.90;;;;;;4954320;28;19926;-66
2022/10/02 08:05:24;;;;;;;;;;;13.90;99.90;;;;;;4954749;28;20306;-66
2022/10/02 08:07:52;;;;;;;;;;;13.90;99.90;;;;;;4954656;28;19926;-67
2022/10/02 08:10:24;;;;;;;;;;;13.90;99.90;;;;;;4952820;28;19927;-67
2022/10/02 08:12:56;;;;;;;;;;;13.90;99.90;;;;;;4934865;29;20314;-66
2022/10/02 08:15:23;;;;;;;;;;;14.00;99.90;;;;;;4935415;29;19942;-66
2022/10/02 08:17:51;;;;;;;;;;;14.00;99.90;;;;;;4935365;29;19994;-66
2022/10/02 08:20:22;;;;;;;;;;;14.00;99.90;;;;;;4935130;29;19934;-66
2022/10/02 08:22:51;;;;;;;;;;;14.00;99.90;;;;;;4935089;29;20417;-66
2022/10/02 08:25:21;;;;;;;;;;;14.10;99.90;;;;;;4935126;29;20017;-66
2022/10/02 08:27:51;;;;;;;;;;;14.10;99.90;;;;;;4934957;29;19931;-66
2022/10/02 08:30:18;;;;;;;;;;;14.10;99.90;;;;;;4935158;29;20006;-67
2022/10/02 08:32:46;;;;;;;;;;;14.10;99.90;;;;;;4934755;29;19927;-66
2022/10/02 08:35:14;;;;;;;;;;;14.20;99.90;;;;;;4935023;29;19937;-66
2022/10/02 08:37:48;;;;;;;;;;;14.20;99.90;;;;;;4934994;29;19933;-66
2022/10/02 08:40:33;;;;;;;;;;;14.20;99.90;;;;;;4934638;29;20022;-66
2022/10/02 08:43:10;;;;;;;;;;;14.40;99.90;;;;;;4934743;29;19930;-66
2022/10/02 08:46:01;;;;;;;;;;;14.50;99.90;;;;;;4934873;29;19934;-66
2022/10/02 08:48:53;;;;;;;;;;;14.50;99.90;;;;;;4904380;29;19962;-66
2022/10/02 08:51:41;;;;;;;;;;;14.70;99.90;;;;;;4867142;29;20490;-66
2022/10/02 08:54:23;;;;;;;;;;;14.80;99.90;;;;;;4903107;29;19927;-66
2022/10/02 08:56:58;;;;;;;;;;;14.90;99.90;;;;;;4931507;29;19931;-65
2022/10/02 08:59:40;;;;;;;;;;;14.80;99.90;;;;;;4934266;29;20365;-66
2022/10/02 09:02:26;;;;;;;;;;;14.70;99.90;;;;;;4931135;29;19938;-67
2022/10/02 09:05:02;;;;;;;;;;;14.70;99.90;;;;;;4934305;29;20019;-66
2022/10/02 09:07:50;;;;;;;;;;;14.70;99.90;;;;;;4934639;29;20305;-66
2022/10/02 09:10:38;;;;;;;;;;;14.70;99.90;;;;;;4929082;29;19935;-66
2022/10/02 09:13:23;;;;;;;;;;;14.90;99.90;;;;;;4921300;28;19937;-66
2022/10/02 09:15:54;;;;;;;;;;;15.00;99.90;;;;;;4953381;29;19950;-66
2022/10/02 09:18:34;;;;;;;;;;;15.10;99.90;;;;;;4953406;28;19930;-66
2022/10/02 09:21:15;;;;;;;;;;;15.30;99.90;;;;;;4953102;29;19934;-66
2022/10/02 09:24:00;;;;;;;;;;;15.30;99.90;;;;;;4953025;29;19926;-68
2022/10/02 09:26:36;;;;;;;;;;;15.60;99.90;;;;;;4953251;28;19926;-66
2022/10/02 09:29:12;;;;;;;;;;;16.00;99.90;;;;;;4953010;29;19933;-67
2022/10/02 09:31:54;;;;;;;;;;;16.30;99.90;;;;;;4953101;29;19927;-66
2022/10/02 09:34:40;;;;;;;;;;;16.30;99.90;;;;;;4952893;29;19933;-66
2022/10/02 09:37:40;;;;;;;;;;;15.90;99.90;;;;;;4953218;29;19934;-66
2022/10/02 09:40:25;;;;;;;;;;;15.60;99.90;;;;;;4952820;29;19934;-66
2022/10/02 09:43:09;;;;;;;;;;;15.30;99.90;;;;;;4952912;29;19930;-67
2022/10/02 09:45:59;;;;;;;;;;;15.10;99.90;;;;;;4952957;29;20382;-66
2022/10/02 09:48:53;;;;;;;;;;;15.10;99.90;;;;;;4952672;29;19931;-66
2022/10/02 09:51:41;;;;;;;;;;;15.10;99.90;;;;;;4952966;29;19949;-67
2022/10/02 09:54:32;;;;;;;;;;;15.20;99.90;;;;;;4946154;29;20425;-66
2022/10/02 09:57:17;;;;;;;;;;;15.30;99.90;;;;;;4952518;29;19926;-66
2022/10/02 09:59:57;;;;;;;;;;;15.50;99.90;;;;;;4951246;28;20335;-66
2022/10/02 10:02:41;;;;;;;;;;;15.50;99.90;;;;;;4952286;29;19926;-66
2022/10/02 10:05:27;;;;;;;;;;;15.50;99.90;;;;;;4952612;29;19941;-66
2022/10/02 10:08:01;;;;;;;;;;;15.50;99.90;;;;;;4952781;28;19926;-66
2022/10/02 10:10:46;;;;;;;;;;;15.50;99.90;;;;;;4949701;29;19934;-66
2022/10/02 10:13:21;;;;;;;;;;;15.60;99.90;;;;;;4933150;29;20402;-66
2022/10/02 10:16:18;;;;;;;;;;;15.50;99.90;;;;;;4933523;29;20251;-66
2022/10/02 10:19:09;;;;;;;;;;;15.70;99.90;;;;;;4933381;29;19938;-66
2022/10/02 10:21:49;;;;;;;;;;;15.90;99.90;;;;;;4914120;29;19933;-66
2022/10/02 10:24:31;;;;;;;;;;;16.00;99.90;;;;;;4933267;29;19926;-66
2022/10/02 10:27:23;;;;;;;;;;;15.80;99.90;;;;;;4933426;29;19930;-67
2022/10/02 10:30:02;;;;;;;;;;;15.80;99.90;;;;;;4914243;29;19927;-65
2022/10/02 10:33:00;;;;;;;;;;;15.60;99.90;;;;;;4932976;29;20022;-66
2022/10/02 10:35:36;;;;;;;;;;;15.60;99.90;;;;;;4859935;29;20435;-67
2022/10/02 10:38:33;;;;;;;;;;;15.60;99.90;;;;;;4920097;29;19927;-66
2022/10/02 10:41:08;;;;;;;;;;;15.50;99.90;;;;;;4932978;29;19931;-66
2022/10/02 10:43:50;;;;;;;;;;;15.60;99.90;;;;;;4933094;29;19933;-66
2022/10/02 10:46:34;;;;;;;;;;;15.70;99.90;;;;;;4933199;29;20456;-66
2022/10/02 10:49:10;;;;;;;;;;;15.60;99.90;;;;;;4894847;29;19927;-67
2022/10/02 10:51:39;;;;;;;;;;;15.60;99.90;;;;;;4933135;29;20405;-66
2022/10/02 10:54:23;;;;;;;;;;;15.60;99.90;;;;;;4932813;29;20306;-66
2022/10/02 10:56:53;;;;;;;;;;;15.50;99.90;;;;;;4932921;29;19927;-66
2022/10/02 10:59:34;;;;;;;;;;;15.50;99.90;;;;;;4962471;28;19926;-66
2022/10/02 11:02:12;;;;;;;;;;;15.90;99.90;;;;;;4971142;28;20352;-64
2022/10/02 11:04:54;;;;;;;;;;;16.50;99.90;;;;;;4971495;28;19926;-66
2022/10/02 11:07:26;;;;;;;;;;;16.80;99.90;;;;;;4971234;28;19926;-66
2022/10/02 11:09:59;;;;;;;;;;;17.60;99.90;;;;;;4971125;28;19926;-66
2022/10/02 11:12:38;;;;;;;;;;;17.90;99.90;;;;;;4956393;28;19927;-66
2022/10/02 11:15:16;;;;;;;;;;;18.00;99.90;;;;;;4955963;29;19930;-66
2022/10/02 11:17:59;;;;;;;;;;;17.50;99.90;;;;;;4955830;29;19930;-68
2022/10/02 11:20:43;;;;;;;;;;;17.30;99.90;;;;;;4955563;29;19930;-66
2022/10/02 11:23:20;;;;;;;;;;;17.20;99.90;;;;;;4955444;29;20030;-66
2022/10/02 11:25:54;;;;;;;;;;;17.40;99.90;;;;;;4955585;29;20458;-68
2022/10/02 11:28:39;;;;;;;;;;;17.30;99.90;;;;;;4955434;29;19931;-67
2022/10/02 11:31:21;;;;;;;;;;;17.10;99.90;;;;;;4955233;29;19926;-66
2022/10/02 11:33:56;;;;;;;;;;;16.80;99.90;;;;;;4955316;29;19937;-67
2022/10/02 11:36:53;;;;;;;;;;;16.70;99.90;;;;;;4955175;29;20017;-66
2022/10/02 11:39:30;;;;;;;;;;;17.20;99.90;;;;;;4881053;29;19935;-68
2022/10/02 11:42:11;;;;;;;;;;;17.40;99.90;;;;;;4941000;29;19940;-67
2022/10/02 11:44:49;;;;;;;;;;;17.30;99.90;;;;;;4952075;29;20397;-68
2022/10/02 11:47:27;;;;;;;;;;;17.50;99.90;;;;;;4955672;29;19954;-66
2022/10/02 11:50:12;;;;;;;;;;;17.60;99.90;;;;;;4954639;29;20024;-66
2022/10/02 11:52:54;;;;;;;;;;;18.10;99.90;;;;;;4954622;29;19926;-66
2022/10/02 11:55:28;;;;;;;;;;;18.70;99.90;;;;;;4955405;29;19972;-66
2022/10/02 11:57:59;;;;;;;;;;;18.60;99.90;;;;;;4955071;29;19926;-67
2022/10/02 12:00:52;;;;;;;;;;;18.90;99.90;;;;;;4954993;28;19931;-67
2022/10/02 12:03:21;;;;;;;;;;;19.80;99.90;;;;;;4954753;29;19930;-66
2022/10/02 12:05:54;;;;;;;;;;;19.70;99.90;;;;;;4954691;28;19930;-68
2022/10/02 12:08:29;;;;;;;;;;;19.20;99.90;;;;;;4954972;29;20009;-66
2022/10/02 12:10:58;;;;;;;;;;;18.50;99.90;;;;;;4954543;29;20523;-67
2022/10/02 12:13:45;;;;;;;;;;;18.40;99.90;;;;;;4954412;28;19926;-66
2022/10/02 12:16:18;;;;;;;;;;;19.70;99.90;;;;;;4954704;28;19930;-68
2022/10/02 12:18:50;;;;;;;;;;;21.30;99.90;;;;;;4954768;29;19926;-66
2022/10/02 12:27:08;;;;;;;;;;;19.40;99.90;;;;;;4954296;29;19926;-66
2022/10/02 12:29:56;;;;;;;;;;;19.90;99.90;;;;;;4954109;29;19926;-67
2022/10/02 12:32:46;;;;;;;;;;;20.30;99.90;;;;;;4950488;28;19961;-68
2022/10/02 12:35:22;;;;;;;;;;;20.30;99.90;;;;;;4935290;28;19926;-66
2022/10/02 12:37:52;;;;;;;;;;;20.30;99.90;;;;;;4954395;29;19934;-66
2022/10/02 12:40:23;;;;;;;;;;;19.60;99.90;;;;;;4953972;29;19933;-66
2022/10/02 12:43:03;;;;;;;;;;;19.00;99.90;;;;;;4953670;29;19959;-66
2022/10/02 12:45:42;;;;;;;;;;;18.90;99.90;;;;;;4954027;29;19933;-67
2022/10/02 12:48:34;;;;;;;;;;;19.00;99.90;;;;;;4954159;29;19926;-66
2022/10/02 12:51:17;;;;;;;;;;;18.90;99.90;;;;;;4935275;29;19926;-66
2022/10/02 12:54:03;;;;;;;;;;;18.70;99.90;;;;;;4953803;29;19977;-66
2022/10/02 12:56:59;;;;;;;;;;;18.60;99.90;;;;;;4953960;29;19930;-68
2022/10/02 12:59:31;;;;;;;;;;;18.10;99.90;;;;;;4953920;29;19931;-68
2022/10/02 13:02:09;;;;;;;;;;;17.90;99.90;;;;;;4953459;28;19926;-66
2022/10/02 13:04:56;;;;;;;;;;;17.40;99.90;;;;;;4953786;29;19927;-66
2022/10/02 13:07:44;;;;;;;;;;;17.30;99.90;;;;;;4954178;29;19961;-66
2022/10/02 13:10:17;;;;;;;;;;;17.20;99.90;;;;;;4946548;28;20374;-67
2022/10/02 13:12:52;;;;;;;;;;;17.10;99.90;;;;;;4934371;29;20043;-66
2022/10/02 13:15:36;;;;;;;;;;;17.20;99.90;;;;;;4934387;29;19970;-66
2022/10/02 13:18:13;;;;;;;;;;;17.30;99.90;;;;;;4934203;29;19981;-66
2022/10/02 13:20:44;;;;;;;;;;;17.50;99.90;;;;;;4934115;29;19926;-66
2022/10/02 13:23:18;;;;;;;;;;;17.30;99.90;;;;;;4934188;29;19947;-67
2022/10/02 13:25:49;;;;;;;;;;;17.40;99.90;;;;;;4934572;29;19933;-66
2022/10/02 13:28:32;;;;;;;;;;;17.40;99.90;;;;;;4934590;29;20465;-66
2022/10/02 13:31:03;;;;;;;;;;;17.30;99.90;;;;;;4934026;29;19950;-66
2022/10/02 13:33:37;;;;;;;;;;;17.20;99.90;;;;;;4933100;29;19938;-66
2022/10/02 13:36:08;;;;;;;;;;;17.00;99.90;;;;;;4934429;29;19927;-66
2022/10/02 13:38:56;;;;;;;;;;;16.90;99.90;;;;;;4933771;29;19927;-66
2022/10/02 13:41:29;;;;;;;;;;;17.00;99.90;;;;;;4927433;29;19931;-66
2022/10/02 13:43:59;;;;;;;;;;;17.10;99.90;;;;;;4933798;29;19927;-67
2022/10/02 13:46:36;;;;;;;;;;;17.10;99.90;;;;;;4933772;29;19934;-66
2022/10/02 13:49:07;;;;;;;;;;;16.90;99.90;;;;;;4933246;29;19927;-66
2022/10/02 13:51:36;;;;;;;;;;;16.70;99.90;;;;;;4934140;29;19935;-66
2022/10/02 13:54:08;;;;;;;;;;;16.70;99.90;;;;;;4933646;29;19927;-66
2022/10/02 13:56:42;;;;;;;;;;;16.60;99.90;;;;;;4933675;29;19927;-66
2022/10/02 13:59:19;;;;;;;;;;;16.50;99.90;;;;;;4933576;29;20326;-66
2022/10/02 14:01:54;;;;;;;;;;;16.60;99.90;;;;;;4933350;29;20280;-66
2022/10/02 14:04:29;;;;;;;;;;;16.60;99.90;;;;;;4933308;29;19931;-66
2022/10/02 14:07:01;;;;;;;;;;;16.60;99.90;;;;;;4933610;29;19934;-66
2022/10/02 14:09:38;;;;;;;;;;;16.50;99.90;;;;;;4933066;29;19926;-66
2022/10/02 14:12:26;;;;;;;;;;;16.40;99.90;;;;;;4948999;29;20389;-66
2022/10/02 14:15:03;;;;;;;;;;;16.40;99.90;;;;;;4952565;29;19981;-66
2022/10/02 14:17:36;;;;;;;;;;;16.30;99.90;;;;;;4952424;29;19936;-67
2022/10/02 14:20:17;;;;;;;;;;;16.30;99.90;;;;;;4952238;29;19934;-67
2022/10/02 14:22:52;;;;;;;;;;;16.10;99.90;;;;;;4949134;29;19973;-67
2022/10/02 14:25:25;;;;;;;;;;;16.10;99.90;;;;;;4952729;29;20492;-66
2022/10/02 14:28:02;;;;;;;;;;;16.10;99.90;;;;;;4952329;29;19926;-66
2022/10/02 14:30:35;;;;;;;;;;;16.20;99.90;;;;;;4952074;29;19934;-66
2022/10/02 14:33:05;;;;;;;;;;;16.20;99.90;;;;;;4951911;29;19927;-66
2022/10/02 14:35:41;;;;;;;;;;;16.30;99.90;;;;;;4952253;29;19934;-66
2022/10/02 14:38:27;;;;;;;;;;;16.40;99.90;;;;;;4952299;29;19927;-66
2022/10/02 14:40:54;;;;;;;;;;;16.40;99.90;;;;;;4952162;29;19930;-66
2022/10/02 14:43:41;;;;;;;;;;;16.60;99.90;;;;;;4951813;29;20418;-64
2022/10/02 14:46:15;;;;;;;;;;;16.80;99.90;;;;;;4951898;28;20055;-66
2022/10/02 14:48:56;;;;;;;;;;;17.20;99.90;;;;;;4951759;29;19930;-68
2022/10/02 14:51:33;;;;;;;;;;;17.70;99.90;;;;;;4952125;29;19930;-66
2022/10/02 14:54:05;;;;;;;;;;;18.30;99.90;;;;;;4951877;29;19934;-68
2022/10/02 14:56:50;;;;;;;;;;;18.40;99.90;;;;;;4952218;29;19935;-68
2022/10/02 14:59:26;;;;;;;;;;;18.40;99.90;;;;;;4951673;29;20033;-66
2022/10/02 15:01:57;;;;;;;;;;;18.30;99.90;;;;;;4951662;28;19981;-66
2022/10/02 15:04:30;;;;;;;;;;;18.30;99.90;;;;;;4952948;29;19930;-66
2022/10/02 15:07:02;;;;;;;;;;;18.40;99.90;;;;;;4953133;29;19926;-66
2022/10/02 15:09:33;;;;;;;;;;;18.50;99.90;;;;;;4952704;29;19926;-67
2022/10/02 15:12:12;;;;;;;;;;;18.80;99.90;;;;;;4952946;29;19958;-66
2022/10/02 15:14:41;;;;;;;;;;;19.50;99.90;;;;;;4952960;29;19930;-66
2022/10/02 15:20:03;;;;;;;;;;;20.00;99.90;;;;;;4952744;29;19922;-66
2022/10/02 15:22:34;;;;;;;;;;;19.40;99.90;;;;;;4952641;29;19927;-66
2022/10/02 15:25:13;;;;;;;;;;;19.10;99.90;;;;;;4952914;29;20453;-66
2022/10/02 15:27:44;;;;;;;;;;;18.80;99.90;;;;;;4952918;29;19933;-66
2022/10/02 15:30:17;;;;;;;;;;;18.50;99.90;;;;;;4952194;29;19945;-66
2022/10/02 15:33:02;;;;;;;;;;;18.10;99.90;;;;;;4952254;29;19926;-66
2022/10/02 15:35:35;;;;;;;;;;;17.70;99.90;;;;;;4952519;28;19926;-66
2022/10/02 15:38:18;;;;;;;;;;;17.40;99.90;;;;;;4952759;29;19927;-66
2022/10/02 15:40:53;;;;;;;;;;;17.10;99.90;;;;;;4952236;29;19926;-66
2022/10/02 15:43:31;;;;;;;;;;;16.80;99.90;;;;;;4952455;29;19937;-66
2022/10/02 15:46:06;;;;;;;;;;;16.70;99.90;;;;;;4952406;29;19926;-66
2022/10/02 15:48:37;;;;;;;;;;;16.50;99.90;;;;;;4952238;29;20349;-66
2022/10/02 15:51:10;;;;;;;;;;;16.50;99.90;;;;;;4951997;29;19926;-65
2022/10/02 15:53:46;;;;;;;;;;;16.40;99.90;;;;;;4951989;29;19926;-66
2022/10/02 15:56:35;;;;;;;;;;;16.30;99.90;;;;;;4952828;28;19934;-66
2022/10/02 15:59:08;;;;;;;;;;;16.30;99.90;;;;;;4955730;29;19981;-66
2022/10/02 16:01:41;;;;;;;;;;;16.40;99.90;;;;;;4955489;28;19962;-66
2022/10/02 16:04:13;;;;;;;;;;;16.50;99.90;;;;;;4955491;29;19933;-66
2022/10/02 16:06:52;;;;;;;;;;;16.60;99.90;;;;;;4955997;29;19926;-65
2022/10/02 16:09:34;;;;;;;;;;;16.90;99.90;;;;;;4955684;29;19927;-66
2022/10/02 16:12:25;;;;;;;;;;;17.20;99.90;;;;;;4955800;29;19926;-65
2022/10/02 16:14:57;;;;;;;;;;;17.40;99.90;;;;;;4955752;29;19982;-66
2022/10/02 16:17:28;;;;;;;;;;;17.60;99.90;;;;;;4955954;29;19981;-66
2022/10/02 16:20:01;;;;;;;;;;;17.80;99.90;;;;;;4955156;29;19927;-66
2022/10/02 16:22:37;;;;;;;;;;;17.60;99.90;;;;;;4955573;29;19938;-66
2022/10/02 16:25:14;;;;;;;;;;;17.40;99.90;;;;;;4955296;29;19926;-66
2022/10/02 16:27:51;;;;;;;;;;;17.10;99.90;;;;;;4955733;29;19941;-66
2022/10/02 16:30:18;;;;;;;;;;;16.90;99.90;;;;;;4955053;29;19926;-66
2022/10/02 16:32:54;;;;;;;;;;;16.70;99.90;;;;;;4954906;28;19934;-66
2022/10/02 16:35:44;;;;;;;;;;;16.60;99.90;;;;;;4955452;29;19931;-66
2022/10/02 16:38:16;;;;;;;;;;;16.50;99.90;;;;;;4955072;29;20342;-66
2022/10/02 16:40:51;;;;;;;;;;;16.40;99.90;;;;;;4954799;29;19949;-66
2022/10/02 16:43:31;;;;;;;;;;;16.40;99.90;;;;;;4955193;29;19933;-66
2022/10/02 16:46:02;;;;;;;;;;;16.30;99.90;;;;;;4955261;29;20372;-66
2022/10/02 16:48:36;;;;;;;;;;;16.30;99.90;;;;;;4954441;29;19926;-66
2022/10/02 16:51:09;;;;;;;;;;;16.10;99.90;;;;;;4955151;29;19926;-66
2022/10/02 16:53:41;;;;;;;;;;;16.00;99.90;;;;;;4955139;29;19931;-66
2022/10/02 16:56:11;;;;;;;;;;;16.00;99.90;;;;;;4955198;29;20456;-66
2022/10/02 16:58:43;;;;;;;;;;;16.10;99.90;;;;;;4955042;28;19961;-66
2022/10/02 17:01:18;;;;;;;;;;;16.10;99.90;;;;;;4954451;29;19934;-66
2022/10/02 17:03:48;;;;;;;;;;;15.90;99.90;;;;;;4954795;29;20400;-66
2022/10/02 17:06:17;;;;;;;;;;;15.90;99.90;;;;;;4954721;29;19930;-66
2022/10/02 17:08:47;;;;;;;;;;;15.70;99.90;;;;;;4954768;28;20372;-66
2022/10/02 17:11:18;;;;;;;;;;;15.60;99.90;;;;;;4954606;29;20056;-67
2022/10/02 17:13:49;;;;;;;;;;;15.50;99.90;;;;;;4955056;29;19926;-66
2022/10/02 17:16:19;;;;;;;;;;;15.30;99.90;;;;;;4954588;29;20310;-66
2022/10/02 17:18:48;;;;;;;;;;;15.10;99.90;;;;;;4954663;29;19974;-67
2022/10/02 17:21:17;;;;;;;;;;;15.00;99.90;;;;;;4954511;28;19926;-66
2022/10/02 17:23:52;;;;;;;;;;;14.90;99.90;;;;;;4954309;29;19927;-66
2022/10/02 17:26:23;;;;;;;;;;;14.80;99.90;;;;;;4954605;29;20021;-67
2022/10/02 17:28:55;;;;;;;;;;;14.70;99.90;;;;;;4954226;28;19927;-65
2022/10/02 17:31:33;;;;;;;;;;;14.60;99.90;;;;;;4954480;29;19962;-66
2022/10/02 17:34:01;;;;;;;;;;;14.60;99.90;;;;;;4954249;29;19926;-66
2022/10/02 17:36:34;;;;;;;;;;;14.50;99.90;;;;;;4954208;29;19938;-67
2022/10/02 17:39:22;;;;;;;;;;;14.50;99.90;;;;;;4954191;29;19931;-66
2022/10/02 17:41:58;;;;;;;;;;;14.50;99.90;;;;;;4947600;29;19926;-68
2022/10/02 17:44:35;;;;;;;;;;;14.50;99.90;;;;;;4953824;29;19981;-66
2022/10/02 17:47:11;;;;;;;;;;;14.40;99.90;;;;;;4953836;29;19931;-66
2022/10/02 17:49:44;;;;;;;;;;;14.40;99.90;;;;;;4953223;29;19934;-67
2022/10/02 17:58:00;;;;;;;;;;;14.20;99.90;;;;;;4953828;29;19926;-67
2022/10/02 18:00:30;;;;;;;;;;;14.10;99.90;;;;;;4953631;29;19930;-66
2022/10/02 18:03:02;;;;;;;;;;;14.10;99.90;;;;;;4953486;28;19930;-66
2022/10/02 18:05:36;;;;;;;;;;;14.00;99.90;;;;;;4953111;29;20646;-66
2022/10/02 18:08:12;;;;;;;;;;;13.90;99.90;;;;;;4953508;29;20305;-66
2022/10/02 18:10:45;;;;;;;;;;;13.80;99.90;;;;;;4953470;29;20350;-67
2022/10/02 18:13:20;;;;;;;;;;;13.80;99.90;;;;;;4953573;29;19930;-66
2022/10/02 18:16:04;;;;;;;;;;;13.80;99.90;;;;;;4953581;29;19934;-66
2022/10/02 18:18:34;;;;;;;;;;;13.70;99.90;;;;;;4953581;29;20002;-66
2022/10/02 18:21:09;;;;;;;;;;;13.70;99.90;;;;;;4952518;28;19930;-66